createdAt,value
2022-12-23T00:01:35.607Z,19.97
2022-12-23T00:04:06.529Z,19.88
2022-12-23T00:06:37.198Z,19.81
2022-12-23T00:09:07.369Z,19.77
2022-12-23T00:11:37.101Z,19.75
2022-12-23T00:14:32.706Z,19.79
2022-12-23T00:17:12.886Z,19.73
2022-12-23T00:19:52.300Z,19.67
2022-12-23T00:22:42.744Z,19.58
2022-12-23T00:25:14.266Z,19.66
2022-12-23T00:28:02.315Z,19.61
2022-12-23T00:30:33.470Z,19.58
2022-12-23T00:33:03.626Z,19.57
2022-12-23T00:35:33.651Z,19.51
2022-12-23T00:38:04.339Z,19.41
2022-12-23T00:40:53.759Z,19.37
2022-12-23T00:43:24.751Z,19.39
2022-12-23T00:45:55.622Z,19.46
2022-12-23T00:48:44.630Z,19.41
2022-12-23T00:51:15.134Z,19.45
2022-12-23T00:53:45.394Z,19.46
2022-12-23T00:56:15.099Z,19.37
2022-12-23T00:58:45.689Z,19.36
2022-12-23T01:01:35.270Z,19.36
2022-12-23T01:04:23.794Z,19.41
2022-12-23T01:06:54.886Z,19.37
2022-12-23T01:09:25.747Z,19.51
2022-12-23T01:11:56.717Z,19.66
2022-12-23T01:14:27.467Z,19.95
2022-12-23T01:16:57.469Z,19.97
2022-12-23T01:19:29.118Z,19.95
2022-12-23T01:21:59.862Z,19.97
2022-12-23T01:24:31.414Z,20.36
2022-12-23T01:27:02.342Z,20.43
2022-12-23T01:29:33.229Z,20.39
2022-12-23T01:32:05.363Z,20.35
2022-12-23T01:34:37.550Z,20.43
2022-12-23T01:37:08.189Z,20.46
2022-12-23T01:39:38.443Z,20.72
2022-12-23T01:42:33.911Z,20.83
2022-12-23T01:45:08.091Z,20.83
2022-12-23T01:47:49.331Z,20.86
2022-12-23T01:50:29.009Z,20.62
2022-12-23T01:53:12.972Z,20.79
2022-12-23T01:56:00.946Z,20.90
2022-12-23T01:58:40.643Z,21.01
2022-12-23T02:01:30.805Z,21.04
2022-12-23T02:04:05.686Z,21.21
2022-12-23T02:06:59.846Z,21.20
2022-12-23T02:09:33.496Z,21.20
2022-12-23T02:12:25.466Z,21.30
2022-12-23T02:15:32.453Z,21.11
2022-12-23T02:18:22.287Z,21.05
2022-12-23T02:21:31.243Z,21.05
2022-12-23T02:24:08.255Z,20.87
2022-12-23T02:26:56.676Z,20.67
2022-12-23T02:29:47.535Z,20.59
2022-12-23T02:32:25.068Z,20.47
2022-12-23T02:35:03.154Z,20.47
2022-12-23T02:37:39.444Z,20.52
2022-12-23T02:40:22.862Z,20.43
2022-12-23T02:43:02.797Z,20.33
2022-12-23T02:45:45.275Z,20.22
2022-12-23T02:48:37.484Z,20.05
2022-12-23T02:51:11.254Z,19.85
2022-12-23T02:53:49.026Z,19.70
2022-12-23T02:56:22.459Z,19.67
2022-12-23T02:59:23.406Z,19.70
2022-12-23T03:01:56.130Z,19.63
2022-12-23T03:04:26.462Z,19.61
2022-12-23T03:07:06.980Z,19.64
2022-12-23T03:10:03.211Z,19.60
2022-12-23T03:13:05.714Z,19.53
2022-12-23T03:15:53.867Z,19.41
2022-12-23T03:18:43.902Z,19.31
2022-12-23T03:21:24.793Z,19.37
2022-12-23T03:24:08.720Z,19.67
2022-12-23T03:26:49.684Z,19.60
2022-12-23T03:29:48.797Z,19.56
2022-12-23T03:32:21.591Z,19.64
2022-12-23T03:34:56.169Z,19.56
2022-12-23T03:37:29.424Z,19.47
2022-12-23T03:40:24.413Z,19.37
2022-12-23T03:43:18.807Z,19.31
2022-12-23T03:46:00.240Z,19.27
2022-12-23T03:48:33.378Z,19.22
2022-12-23T03:51:08.665Z,19.09
2022-12-23T03:53:53.624Z,18.96
2022-12-23T03:56:36.461Z,18.76
2022-12-23T03:59:16.060Z,18.68
2022-12-23T04:02:05.088Z,18.55
2022-12-23T04:05:05.275Z,18.38
2022-12-23T04:07:51.230Z,18.24
2022-12-23T04:10:23.139Z,18.23
2022-12-23T04:12:54.316Z,18.13
2022-12-23T04:15:27.431Z,18.06
2022-12-23T04:17:58.908Z,18.20
2022-12-23T04:20:29.237Z,18.10
2022-12-23T04:22:59.424Z,18.09
2022-12-23T04:25:30.422Z,18.03
2022-12-23T04:28:00.814Z,18.03
2022-12-23T04:30:34.464Z,18.00
2022-12-23T04:36:03.786Z,18.06
2022-12-23T04:38:34.193Z,18.14
2022-12-23T04:41:03.903Z,18.20
2022-12-23T04:43:33.938Z,18.20
2022-12-23T04:46:04.314Z,18.29
2022-12-23T04:48:35.295Z,18.29
2022-12-23T04:51:05.642Z,18.21
2022-12-23T04:53:38.861Z,18.12
2022-12-23T04:56:09.290Z,18.07
2022-12-23T04:58:40.479Z,18.04
2022-12-23T05:01:13.376Z,18.06
2022-12-23T05:03:44.842Z,18.09
2022-12-23T05:06:15.563Z,18.09
2022-12-23T05:08:45.717Z,18.06
2022-12-23T05:11:16.024Z,18.00
2022-12-23T05:13:45.747Z,17.93
2022-12-23T05:16:16.479Z,17.89
2022-12-23T05:18:46.839Z,17.87
2022-12-23T05:21:18.426Z,17.83
2022-12-23T05:23:48.269Z,17.81
2022-12-23T05:26:18.827Z,17.76
2022-12-23T05:28:49.669Z,17.76
2022-12-23T05:31:20.181Z,17.76
2022-12-23T05:33:50.064Z,17.75
2022-12-23T05:39:18.780Z,17.71
2022-12-23T05:41:48.606Z,17.69
2022-12-23T05:44:19.046Z,17.68
2022-12-23T05:46:48.756Z,17.56
2022-12-23T05:49:18.853Z,17.49
2022-12-23T05:51:48.586Z,17.39
2022-12-23T05:54:19.462Z,17.34
2022-12-23T05:56:50.438Z,17.27
2022-12-23T05:59:21.246Z,17.21
2022-12-23T06:01:50.964Z,17.13
2022-12-23T06:04:22.716Z,17.06
2022-12-23T06:06:53.053Z,17.06
2022-12-23T06:09:22.757Z,16.99
2022-12-23T06:11:53.328Z,16.93
2022-12-23T06:14:28.530Z,16.93
2022-12-23T06:17:01.224Z,16.90
2022-12-23T06:19:32.035Z,16.88
2022-12-23T06:22:02.719Z,16.83
2022-12-23T06:24:32.457Z,16.80
2022-12-23T06:27:04.292Z,16.81
2022-12-23T06:29:35.486Z,16.76
2022-12-23T06:32:05.470Z,16.74
2022-12-23T06:34:35.608Z,16.72
2022-12-23T06:37:07.177Z,16.66
2022-12-23T06:39:38.469Z,16.65
2022-12-23T06:42:10.814Z,16.60
2022-12-23T06:44:40.980Z,16.56
2022-12-23T06:47:11.060Z,16.53
2022-12-23T06:49:41.352Z,16.52
2022-12-23T06:52:12.482Z,16.52
2022-12-23T06:54:42.886Z,16.51
2022-12-23T06:57:12.586Z,16.49
2022-12-23T06:59:42.944Z,16.44
2022-12-23T07:02:14.987Z,16.46
2022-12-23T07:04:45.229Z,16.49
2022-12-23T07:07:14.928Z,16.46
2022-12-23T07:09:46.109Z,16.48
2022-12-23T07:12:16.360Z,16.42
2022-12-23T07:14:46.572Z,16.38
2022-12-23T07:17:16.731Z,16.33
2022-12-23T07:19:46.465Z,16.35
2022-12-23T07:22:17.092Z,16.35
2022-12-23T07:24:47.639Z,16.38
2022-12-23T07:27:18.472Z,16.35
2022-12-23T07:29:49.234Z,16.36
2022-12-23T07:32:19.292Z,16.38
2022-12-23T07:34:50.034Z,16.39
2022-12-23T07:37:20.945Z,16.42
2022-12-23T07:39:50.974Z,16.39
2022-12-23T07:45:11.386Z,16.53
2022-12-23T07:47:41.991Z,16.59
2022-12-23T07:50:13.522Z,16.56
2022-12-23T07:52:44.346Z,16.55
2022-12-23T07:55:14.591Z,16.52
2022-12-23T07:57:45.133Z,16.51
2022-12-23T08:00:16.982Z,16.53
2022-12-23T08:02:47.587Z,16.56
2022-12-23T08:05:18.321Z,16.60
2022-12-23T08:07:51.176Z,16.59
2022-12-23T08:10:21.881Z,16.55
2022-12-23T08:12:52.054Z,16.55
2022-12-23T08:15:21.844Z,16.49
2022-12-23T08:17:52.247Z,16.48
2022-12-23T08:20:22.542Z,16.49
2022-12-23T08:22:52.961Z,16.55
2022-12-23T08:25:23.082Z,16.55
2022-12-23T08:27:53.061Z,16.52
2022-12-23T08:30:23.097Z,16.49
2022-12-23T08:32:53.380Z,16.55
2022-12-23T08:35:24.025Z,16.57
2022-12-23T08:37:53.755Z,16.63
2022-12-23T08:40:23.737Z,16.69
2022-12-23T08:45:51.568Z,16.74
2022-12-23T08:48:22.201Z,16.81
2022-12-23T08:50:52.379Z,16.81
2022-12-23T08:53:23.628Z,16.84
2022-12-23T08:55:53.834Z,16.95
2022-12-23T08:58:24.618Z,17.00
2022-12-23T09:00:56.490Z,17.02
2022-12-23T09:03:26.517Z,17.07
2022-12-23T09:05:57.695Z,17.15
2022-12-23T09:08:27.951Z,17.21
2022-12-23T09:10:59.621Z,17.25
2022-12-23T09:13:35.146Z,17.32
2022-12-23T09:16:08.204Z,17.39
2022-12-23T09:18:39.058Z,17.46
2022-12-23T09:21:15.433Z,17.55
2022-12-23T09:23:45.449Z,17.62
2022-12-23T09:26:26.666Z,17.75
2022-12-23T09:28:58.220Z,17.89
2022-12-23T09:31:34.322Z,18.17
2022-12-23T09:34:07.791Z,18.55
2022-12-23T09:36:37.776Z,18.82
2022-12-23T09:39:08.561Z,18.73
2022-12-23T09:42:02.754Z,18.88
2022-12-23T09:45:14.122Z,19.00
2022-12-23T09:47:46.373Z,19.12
2022-12-23T09:50:23.218Z,19.20
2022-12-23T09:53:07.572Z,19.29
2022-12-23T09:55:46.392Z,19.64
2022-12-23T09:58:33.613Z,19.71
2022-12-23T10:01:36.806Z,19.91
2022-12-23T10:04:38.711Z,19.98
2022-12-23T10:07:21.881Z,20.18
2022-12-23T10:10:00.995Z,20.24
2022-12-23T10:12:37.370Z,21.24
2022-12-23T10:15:23.229Z,21.78
2022-12-23T10:17:57.927Z,21.49
2022-12-23T10:20:41.984Z,21.76
2022-12-23T10:23:19.125Z,21.86
2022-12-23T10:25:54.124Z,21.99
2022-12-23T10:28:24.809Z,22.07
2022-12-23T10:34:06.680Z,22.67
2022-12-23T10:36:51.863Z,22.82
2022-12-23T10:39:45.970Z,22.94
2022-12-23T10:42:22.453Z,22.94
2022-12-23T10:45:10.767Z,23.22
2022-12-23T10:47:57.193Z,23.42
2022-12-23T10:50:47.145Z,23.43
2022-12-23T10:53:45.923Z,23.53
2022-12-23T11:07:44.089Z,25.02
2022-12-23T11:10:20.403Z,25.73
2022-12-23T11:12:54.429Z,26.24
2022-12-23T11:15:32.413Z,26.57
2022-12-23T11:18:07.572Z,27.29
2022-12-23T11:20:39.796Z,27.22
2022-12-23T11:23:30.282Z,27.36
2022-12-23T11:26:05.400Z,27.46
2022-12-23T11:29:00.664Z,28.11
2022-12-23T11:31:36.735Z,28.59
2022-12-23T11:34:15.598Z,28.86
2022-12-23T11:36:56.541Z,28.96
2022-12-23T11:39:34.057Z,29.39
2022-12-23T11:42:10.506Z,29.23
2022-12-23T11:44:48.435Z,29.44
2022-12-23T11:47:23.905Z,29.04
2022-12-23T11:49:57.697Z,29.58
2022-12-23T11:52:33.792Z,29.78
2022-12-23T11:55:06.746Z,29.50
2022-12-23T11:57:44.383Z,29.52
2022-12-23T12:00:25.724Z,29.51
2022-12-23T12:03:03.721Z,29.48
2022-12-23T12:05:33.689Z,29.62
2022-12-23T12:08:08.185Z,30.16
2022-12-23T12:10:40.994Z,29.58
2022-12-23T12:13:32.701Z,29.47
2022-12-23T12:16:41.108Z,30.01
2022-12-23T12:19:37.244Z,30.63
2022-12-23T12:22:42.244Z,30.44
2022-12-23T12:25:25.868Z,30.13
2022-12-23T12:28:04.759Z,30.01
2022-12-23T12:31:07.274Z,30.50
2022-12-23T12:34:08.028Z,30.72
2022-12-23T12:36:58.122Z,30.82
2022-12-23T12:39:55.345Z,30.98
2022-12-23T12:42:25.248Z,30.77
2022-12-23T12:45:16.250Z,30.65
2022-12-23T12:48:17.794Z,30.81
2022-12-23T12:51:26.692Z,31.03
2022-12-23T12:54:15.989Z,30.80
2022-12-23T12:56:54.666Z,31.19
2022-12-23T12:59:29.828Z,31.57
2022-12-23T13:02:18.241Z,32.20
2022-12-23T13:04:55.172Z,32.52
2022-12-23T13:07:30.855Z,33.04
2022-12-23T13:10:45.678Z,32.61
2022-12-23T13:13:40.818Z,32.17
2022-12-23T13:16:17.851Z,31.80
2022-12-23T13:19:02.819Z,31.87
2022-12-23T13:21:43.441Z,31.69
2022-12-23T13:24:38.255Z,31.53
2022-12-23T13:27:21.152Z,31.47
2022-12-23T13:30:02.900Z,31.60
2022-12-23T13:32:47.408Z,32.04
2022-12-23T13:35:24.537Z,32.37
2022-12-23T13:37:57.845Z,31.94
2022-12-23T13:40:52.599Z,31.67
2022-12-23T13:43:27.158Z,31.66
2022-12-23T13:46:01.757Z,31.83
2022-12-23T13:48:47.543Z,32.24
2022-12-23T13:51:48.136Z,33.02
2022-12-23T13:54:25.841Z,33.27
2022-12-23T13:57:09.260Z,32.69
2022-12-23T13:59:45.422Z,32.82
2022-12-23T14:02:38.506Z,32.78
2022-12-23T14:05:34.590Z,33.03
2022-12-23T14:08:20.950Z,33.19
2022-12-23T14:11:24.475Z,32.66
2022-12-23T14:13:56.982Z,32.80
2022-12-23T14:17:04.543Z,32.62
2022-12-23T14:20:13.998Z,32.52
2022-12-23T14:23:22.688Z,32.62
2022-12-23T14:26:30.057Z,32.79
2022-12-23T14:29:09.763Z,33.67
2022-12-23T14:31:44.309Z,33.55
2022-12-23T14:34:20.422Z,33.13
2022-12-23T14:37:26.945Z,33.87
2022-12-23T14:40:00.583Z,34.20
2022-12-23T14:42:42.807Z,34.04
2022-12-23T14:45:42.919Z,34.33
2022-12-23T14:48:43.493Z,34.66
2022-12-23T14:51:17.546Z,34.73
2022-12-23T14:53:56.384Z,34.56
2022-12-23T14:56:41.671Z,34.91
2022-12-23T14:59:25.950Z,34.53
2022-12-23T15:02:06.627Z,34.67
2022-12-23T15:04:47.410Z,34.96
2022-12-23T15:07:21.084Z,34.53
2022-12-23T15:10:01.246Z,35.06
2022-12-23T15:12:44.853Z,34.90
2022-12-23T15:15:20.074Z,34.70
2022-12-23T15:17:50.655Z,35.33
2022-12-23T15:20:26.358Z,35.33
2022-12-23T15:23:03.076Z,35.41
2022-12-23T15:25:36.257Z,35.95
2022-12-23T15:28:07.551Z,34.79
2022-12-23T15:30:49.986Z,34.52
2022-12-23T15:36:17.227Z,35.18
2022-12-23T15:38:47.967Z,35.28
2022-12-23T15:41:20.271Z,35.90
2022-12-23T15:43:51.350Z,36.48
2022-12-23T15:46:29.889Z,35.95
2022-12-23T15:49:00.876Z,35.73
2022-12-23T15:54:34.929Z,36.85
2022-12-23T15:57:10.522Z,36.29
2022-12-23T15:59:41.062Z,35.85
2022-12-23T16:05:51.562Z,35.49
2022-12-23T16:08:30.054Z,35.83
2022-12-23T16:11:20.167Z,35.82
2022-12-23T16:14:03.906Z,35.96
2022-12-23T16:16:42.011Z,36.29
2022-12-23T16:19:41.780Z,36.30
2022-12-23T16:22:23.779Z,36.26
2022-12-23T16:24:58.940Z,35.76
2022-12-23T16:27:48.891Z,35.86
2022-12-23T16:30:22.520Z,36.36
2022-12-23T16:32:56.152Z,36.57
2022-12-23T16:35:35.867Z,36.23
2022-12-23T16:38:12.283Z,36.45
2022-12-23T16:40:43.697Z,36.41
2022-12-23T16:43:14.535Z,36.51
2022-12-23T16:45:47.205Z,36.50
2022-12-23T16:48:35.716Z,36.36
2022-12-23T16:51:09.871Z,36.77
2022-12-23T16:53:40.807Z,35.93
2022-12-23T16:56:14.574Z,35.89
2022-12-23T16:58:45.915Z,36.22
2022-12-23T17:01:24.487Z,36.32
2022-12-23T17:03:56.918Z,36.13
2022-12-23T17:06:28.469Z,36.24
2022-12-23T17:08:59.692Z,35.95
2022-12-23T17:12:04.151Z,36.41
2022-12-23T17:14:34.270Z,36.24
2022-12-23T17:17:12.692Z,36.15
2022-12-23T17:19:44.218Z,36.53
2022-12-23T17:22:15.568Z,35.97
2022-12-23T17:24:46.139Z,35.61
2022-12-23T17:27:19.674Z,35.72
2022-12-23T17:29:51.089Z,36.44
2022-12-23T17:32:22.502Z,35.96
2022-12-23T17:34:52.729Z,35.97
2022-12-23T17:37:25.835Z,35.71
2022-12-23T17:39:56.753Z,35.46
2022-12-23T17:42:26.678Z,35.45
2022-12-23T17:44:57.337Z,35.92
2022-12-23T17:47:27.545Z,35.15
2022-12-23T17:49:58.340Z,34.93
2022-12-23T17:52:29.017Z,35.01
2022-12-23T17:54:59.694Z,35.00
2022-12-23T17:57:29.585Z,35.08
2022-12-23T18:00:01.420Z,34.93
2022-12-23T18:02:42.644Z,35.23
2022-12-23T18:05:27.579Z,35.27
2022-12-23T18:07:59.905Z,35.15
2022-12-23T18:10:40.896Z,34.87
2022-12-23T18:13:17.801Z,34.71
2022-12-23T18:15:48.863Z,34.67
2022-12-23T18:18:28.946Z,34.04
2022-12-23T18:21:02.534Z,34.22
2022-12-23T18:23:35.411Z,34.32
2022-12-23T18:26:06.373Z,34.43
2022-12-23T18:28:36.101Z,34.39
2022-12-23T18:31:07.009Z,34.28
2022-12-23T18:33:37.700Z,34.18
2022-12-23T18:36:07.791Z,34.26
2022-12-23T18:38:38.201Z,34.46
2022-12-23T18:41:13.563Z,34.38
2022-12-23T18:43:45.408Z,33.95
2022-12-23T18:46:15.479Z,33.67
2022-12-23T18:48:45.619Z,33.71
2022-12-23T18:51:21.855Z,33.57
2022-12-23T18:53:53.248Z,33.58
2022-12-23T18:56:24.745Z,33.64
2022-12-23T18:58:55.282Z,33.53
2022-12-23T19:01:26.542Z,33.84
2022-12-23T19:03:57.823Z,33.65
2022-12-23T19:06:29.463Z,33.33
2022-12-23T19:08:59.865Z,33.07
2022-12-23T19:11:30.701Z,32.95
2022-12-23T19:14:01.776Z,32.86
2022-12-23T19:16:31.582Z,32.66
2022-12-23T19:19:01.600Z,32.35
2022-12-23T19:21:31.968Z,32.03
2022-12-23T19:24:02.236Z,31.59
2022-12-23T19:26:32.386Z,31.33
2022-12-23T19:29:02.790Z,31.05
2022-12-23T19:31:34.995Z,30.82
2022-12-23T19:34:09.743Z,30.65
2022-12-23T19:36:45.260Z,30.47
2022-12-23T19:39:18.019Z,30.37
2022-12-23T19:41:48.367Z,30.37
2022-12-23T19:44:18.237Z,30.98
2022-12-23T19:46:49.983Z,30.80
2022-12-23T19:49:20.611Z,30.95
2022-12-23T19:51:51.010Z,30.81
2022-12-23T19:54:21.279Z,30.39
2022-12-23T19:56:53.148Z,30.09
2022-12-23T19:59:23.995Z,29.93
2022-12-23T20:01:55.283Z,29.93
2022-12-23T20:04:26.513Z,29.82
2022-12-23T20:06:58.056Z,29.81
2022-12-23T20:09:28.500Z,29.72
2022-12-23T20:11:58.306Z,29.62
2022-12-23T20:14:32.230Z,29.55
2022-12-23T20:17:05.519Z,29.58
2022-12-23T20:19:42.086Z,29.69
2022-12-23T20:22:16.056Z,29.69
2022-12-23T20:24:45.914Z,29.51
2022-12-23T20:27:19.101Z,29.39
2022-12-23T20:29:52.228Z,29.24
2022-12-23T20:32:23.646Z,29.03
2022-12-23T20:34:53.357Z,28.96
2022-12-23T20:37:25.042Z,28.89
2022-12-23T20:39:56.159Z,28.79
2022-12-23T20:42:28.738Z,28.72
2022-12-23T20:44:58.723Z,28.65
2022-12-23T20:47:28.946Z,28.59
2022-12-23T20:49:59.293Z,28.53
2022-12-23T20:52:29.364Z,28.44
2022-12-23T20:55:00.071Z,28.41
2022-12-23T20:57:30.469Z,28.36
2022-12-23T21:00:01.871Z,28.22
2022-12-23T21:02:33.153Z,28.21
2022-12-23T21:05:03.814Z,28.12
2022-12-23T21:07:33.745Z,28.01
2022-12-23T21:10:04.150Z,27.93
2022-12-23T21:12:34.367Z,27.83
2022-12-23T21:15:05.558Z,27.81
2022-12-23T21:17:35.874Z,27.74
2022-12-23T21:20:07.917Z,27.60
2022-12-23T21:22:39.759Z,27.49
2022-12-23T21:25:10.285Z,27.38
2022-12-23T21:27:40.872Z,27.26
2022-12-23T21:30:12.055Z,27.12
2022-12-23T21:32:42.753Z,27.01
2022-12-23T21:35:13.555Z,26.88
2022-12-23T21:37:44.383Z,26.77
2022-12-23T21:40:14.526Z,26.71
2022-12-23T21:42:46.243Z,26.60
2022-12-23T21:45:17.483Z,26.54
2022-12-23T21:47:47.757Z,26.40
2022-12-23T21:50:17.615Z,26.58
2022-12-23T21:52:48.923Z,26.57
2022-12-23T21:55:20.481Z,26.64
2022-12-23T21:57:50.570Z,26.62
2022-12-23T22:00:20.508Z,26.43
2022-12-23T22:05:48.653Z,26.27
2022-12-23T22:08:18.991Z,26.06
2022-12-23T22:10:49.259Z,26.04
2022-12-23T22:13:20.554Z,25.89
2022-12-23T22:15:51.210Z,25.65
2022-12-23T22:18:20.998Z,25.55
2022-12-23T22:20:51.558Z,25.52
2022-12-23T22:23:21.331Z,25.62
2022-12-23T22:25:58.149Z,25.44
2022-12-23T22:28:28.879Z,25.18
2022-12-23T22:31:07.444Z,24.93
2022-12-23T22:33:37.646Z,24.75
2022-12-23T22:36:09.009Z,24.56
2022-12-23T22:38:40.028Z,24.42
2022-12-23T22:41:11.966Z,24.35
2022-12-23T22:43:42.338Z,24.32
2022-12-23T22:46:12.930Z,24.26
2022-12-23T22:48:43.539Z,24.22
2022-12-23T22:51:18.415Z,24.14
2022-12-23T22:53:48.925Z,24.07
2022-12-23T22:56:20.952Z,23.89
2022-12-23T22:58:52.923Z,23.74
2022-12-23T23:01:27.897Z,23.66
2022-12-23T23:04:00.155Z,23.59
2022-12-23T23:06:39.625Z,23.51
2022-12-23T23:09:13.331Z,23.39
2022-12-23T23:11:45.442Z,23.26
2022-12-23T23:14:15.724Z,23.20
2022-12-23T23:16:46.150Z,23.16
2022-12-23T23:19:18.767Z,23.01
2022-12-23T23:21:49.906Z,22.79
2022-12-23T23:24:20.069Z,22.85
2022-12-23T23:26:49.847Z,22.88
2022-12-23T23:29:22.101Z,22.68
2022-12-23T23:31:53.135Z,22.58
2022-12-23T23:34:23.338Z,22.58
2022-12-23T23:36:53.226Z,22.57
2022-12-23T23:39:23.831Z,22.48
2022-12-23T23:41:53.791Z,22.54
2022-12-23T23:44:24.859Z,22.62
2022-12-23T23:46:55.885Z,22.68
2022-12-23T23:49:27.179Z,22.51
2022-12-23T23:51:57.771Z,22.51
2022-12-23T23:54:27.578Z,22.55
2022-12-23T23:56:57.562Z,22.47
2022-12-23T23:59:27.595Z,22.48
